PHL weather

Philadelphia International Airport
Philadelphia, Pennsylvania, United States

Public forecast

Using degrees Fahrenheit for public forecast. Weather courtesy of forecast.io.

METAR (pilot weather report)

Retrieved 2018/08/20 02:54 UTC (43 minutes ago):

KPHL 200254Z 09011KT 6SM -RA BR OVC031 19/17 A3009 RMK AO2 RAB0159 SLP187 P0000 60007 T01940172 51016 $

TAF (pilot weather forecast)

Forecast is more than 12 hours old.

Retrieved 2018/08/19 00:31 UTC (1 day ago):

TAF KPHL 192322Z 2000/2106 06012KT 3SM -SHRA BR SCT008 OVC012 FM200300 06006KT 6SM BR VCSH OVC012 FM200600 05005KT 5SM BR OVC012 FM201000 04005KT 6SM BR SCT012 BKN020 FM201300 05006KT P6SM BKN025 FM201600 06009KT P6SM BKN040